Time;durP1;ratioP1;P1;durP2;ratioP2;P2;SDS_P1;SDS_P2;PMS_P1;PMS_P2;Temp;Humidity;BMP_temperature;BMP_pressure;BME280_temperature;BME280_humidity;BME280_pressure;Samples;Min_cycle;Max_cycle;Signal;HPM_P1;HPM_P2
2024/02/14 00:02:25;;;;;;;9.57;5.57;;;-0.20;99.90;;;;;;5072736;28;20489;-59
2024/02/14 00:04:54;;;;;;;14.40;7.47;;;-0.30;99.90;;;;;;5078341;28;20047;-59
2024/02/14 00:07:20;;;;;;;14.55;6.90;;;-0.30;99.90;;;;;;5076354;28;20492;-59
2024/02/14 00:09:46;;;;;;;13.23;6.72;;;-0.30;99.90;;;;;;5071231;28;20098;-59
2024/02/14 00:12:14;;;;;;;15.25;7.43;;;-0.30;99.90;;;;;;5071762;28;20101;-59
2024/02/14 00:14:40;;;;;;;11.95;6.72;;;-0.40;99.90;;;;;;5075983;28;20028;-59
2024/02/14 00:17:07;;;;;;;15.27;7.38;;;-0.40;99.90;;;;;;5076206;28;20019;-59
2024/02/14 00:19:32;;;;;;;12.02;6.55;;;-0.50;99.90;;;;;;5076979;28;20447;-59
2024/02/14 00:21:58;;;;;;;12.90;7.10;;;-0.50;99.90;;;;;;5076308;28;20024;-59
2024/02/14 00:24:28;;;;;;;12.77;7.00;;;-0.50;99.90;;;;;;5075002;28;20114;-59
2024/02/14 00:26:54;;;;;;;14.23;6.90;;;-0.60;99.90;;;;;;5076542;28;20396;-58
2024/02/14 00:29:19;;;;;;;11.23;6.97;;;-0.60;99.90;;;;;;5072834;28;20024;-59
2024/02/14 00:31:45;;;;;;;15.20;7.47;;;-0.60;99.90;;;;;;5075572;28;20032;-58
2024/02/14 00:34:10;;;;;;;15.88;7.40;;;-0.70;99.90;;;;;;5072858;28;20064;-59
2024/02/14 00:36:36;;;;;;;13.38;6.82;;;-0.70;99.90;;;;;;5069942;28;20055;-58
2024/02/14 00:39:02;;;;;;;11.82;7.07;;;-0.70;99.90;;;;;;5072261;28;20465;-59
2024/02/14 00:41:29;;;;;;;13.70;7.45;;;-0.70;99.90;;;;;;5072796;28;20024;-59
2024/02/14 00:43:55;;;;;;;13.98;6.68;;;-0.70;99.90;;;;;;5074216;28;20028;-59
2024/02/14 00:46:21;;;;;;;14.07;7.00;;;-0.80;99.90;;;;;;5077664;28;20099;-58
2024/02/14 00:48:49;;;;;;;14.43;7.28;;;-0.80;99.90;;;;;;5071263;28;20115;-58
2024/02/14 00:51:15;;;;;;;14.38;7.38;;;-0.80;99.90;;;;;;5075043;28;20465;-59
2024/02/14 00:53:40;;;;;;;9.18;6.20;;;-0.80;99.90;;;;;;5075174;28;20045;-58
2024/02/14 00:56:07;;;;;;;14.55;7.65;;;-0.80;99.90;;;;;;5073315;28;20024;-59
2024/02/14 00:58:32;;;;;;;13.93;7.32;;;-0.80;99.90;;;;;;5076837;28;20576;-59
2024/02/14 01:01:01;;;;;;;14.20;7.28;;;-0.80;99.90;;;;;;5076503;28;20127;-60
2024/02/14 01:03:26;;;;;;;16.05;7.47;;;-0.70;99.90;;;;;;5074841;28;20050;-58
2024/02/14 01:05:51;;;;;;;10.73;6.07;;;-0.70;99.90;;;;;;5072865;28;20022;-58
2024/02/14 01:08:17;;;;;;;14.25;7.15;;;-0.70;99.90;;;;;;5074308;28;20043;-59
2024/02/14 01:10:43;;;;;;;15.30;7.88;;;-0.70;99.90;;;;;;5078002;28;20032;-59
2024/02/14 01:13:08;;;;;;;14.05;7.68;;;-0.70;99.90;;;;;;5074393;28;20439;-58
2024/02/14 01:15:37;;;;;;;11.52;6.65;;;-0.70;99.90;;;;;;5072366;28;20060;-58
2024/02/14 01:18:03;;;;;;;11.48;6.72;;;-0.70;99.90;;;;;;5075786;28;20382;-59
2024/02/14 01:20:29;;;;;;;14.00;6.90;;;-0.70;99.90;;;;;;5074198;28;20053;-58
2024/02/14 01:22:54;;;;;;;14.65;7.28;;;-0.60;99.90;;;;;;5075920;28;20051;-58
2024/02/14 01:25:20;;;;;;;14.40;7.88;;;-0.60;99.90;;;;;;5069349;28;20036;-59
2024/02/14 01:27:49;;;;;;;22.50;8.43;;;-0.60;99.90;;;;;;5071123;28;20032;-60
2024/02/14 01:30:14;;;;;;;13.13;7.00;;;-0.60;99.90;;;;;;5071264;28;20393;-59
2024/02/14 01:32:40;;;;;;;15.45;7.50;;;-0.50;99.90;;;;;;5071631;28;20028;-58
2024/02/14 01:35:06;;;;;;;10.70;6.57;;;-0.50;99.90;;;;;;5076648;28;20027;-59
2024/02/14 01:37:32;;;;;;;8.95;5.75;;;-0.50;99.90;;;;;;5074058;28;20031;-55
2024/02/14 01:39:57;;;;;;;15.43;8.73;;;-0.50;99.90;;;;;;5075779;28;20036;-58
2024/02/14 01:42:22;;;;;;;13.50;7.80;;;-0.40;99.90;;;;;;5070771;28;20028;-53
2024/02/14 01:44:48;;;;;;;10.18;6.20;;;-0.40;99.90;;;;;;5073124;28;20523;-54
2024/02/14 01:47:14;;;;;;;16.00;8.18;;;-0.30;99.90;;;;;;5068784;28;20031;-55
2024/02/14 01:49:44;;;;;;;13.02;7.47;;;-0.30;99.90;;;;;;5073926;28;20487;-54
2024/02/14 01:52:10;;;;;;;14.10;6.78;;;-0.30;99.90;;;;;;5073869;28;20016;-54
2024/02/14 01:54:36;;;;;;;17.85;7.45;;;-0.20;99.90;;;;;;5074698;28;20266;-54
2024/02/14 01:57:02;;;;;;;14.43;8.25;;;-0.20;99.90;;;;;;5069274;28;20554;-52
2024/02/14 01:59:29;;;;;;;9.93;6.47;;;-0.20;99.90;;;;;;5081643;28;20073;-55
2024/02/14 02:01:54;;;;;;;13.05;7.10;;;-0.20;99.90;;;;;;5077854;28;20024;-54
2024/02/14 02:04:20;;;;;;;11.75;7.28;;;-0.20;99.90;;;;;;5081797;28;20485;-54
2024/02/14 02:06:46;;;;;;;11.50;6.95;;;-0.20;99.90;;;;;;5081596;28;20106;-55
2024/02/14 02:09:11;;;;;;;12.23;7.20;;;-0.20;99.90;;;;;;5079838;28;20119;-53
2024/02/14 02:11:50;;;;;;;13.38;7.15;;;-0.20;99.90;;;;;;5083417;28;20067;-54
2024/02/14 02:14:16;;;;;;;12.43;7.63;;;-0.20;99.90;;;;;;5081474;28;20032;-53
2024/02/14 02:16:45;;;;;;;16.38;8.15;;;-0.20;99.90;;;;;;5081198;28;20077;-54
2024/02/14 02:19:11;;;;;;;17.48;8.05;;;-0.20;99.90;;;;;;5081313;28;20568;-54
2024/02/14 02:21:37;;;;;;;13.52;7.47;;;-0.20;99.90;;;;;;5081778;28;20100;-53
2024/02/14 02:24:03;;;;;;;17.65;8.57;;;-0.20;99.90;;;;;;5081098;28;20062;-55
2024/02/14 02:26:28;;;;;;;15.70;8.10;;;-0.20;99.90;;;;;;5081303;28;20062;-55
2024/02/14 02:28:54;;;;;;;15.75;7.78;;;-0.20;99.90;;;;;;5079836;28;20076;-55
2024/02/14 02:31:20;;;;;;;18.15;8.40;;;-0.10;99.90;;;;;;5081134;28;20020;-55
2024/02/14 02:33:46;;;;;;;12.32;5.93;;;-0.10;99.90;;;;;;5082251;28;20020;-54
2024/02/14 02:36:11;;;;;;;16.55;8.13;;;0.00;99.90;;;;;;5083106;28;20030;-55
2024/02/14 02:38:37;;;;;;;16.00;8.35;;;0.00;99.90;;;;;;5080733;28;20032;-55
2024/02/14 02:41:06;;;;;;;13.98;7.30;;;0.00;99.90;;;;;;5081211;28;20463;-53
2024/02/14 02:43:32;;;;;;;14.48;7.80;;;0.00;99.90;;;;;;5074448;28;20039;-55
2024/02/14 02:45:57;;;;;;;15.02;7.80;;;0.00;99.90;;;;;;5074507;28;20544;-51
2024/02/14 02:48:23;;;;;;;17.33;7.70;;;0.10;99.90;;;;;;5072267;28;20400;-52
2024/02/14 02:50:49;;;;;;;14.35;7.68;;;0.10;99.90;;;;;;5078491;28;20066;-49
2024/02/14 02:53:16;;;;;;;16.08;8.68;;;0.10;99.90;;;;;;5076506;28;20097;-54
2024/02/14 02:55:41;;;;;;;16.73;7.95;;;0.20;99.90;;;;;;5073603;28;20037;-55
2024/02/14 02:58:07;;;;;;;17.25;9.15;;;0.20;99.90;;;;;;5079369;28;20027;-54
2024/02/14 03:00:33;;;;;;;14.00;8.50;;;0.20;99.90;;;;;;5076297;28;20124;-54
2024/02/14 03:02:59;;;;;;;11.38;7.43;;;0.30;99.90;;;;;;5072344;28;20020;-54
2024/02/14 03:05:24;;;;;;;14.88;7.78;;;0.30;99.90;;;;;;5076487;28;20020;-54
2024/02/14 03:07:50;;;;;;;13.60;7.88;;;0.30;99.90;;;;;;5074368;28;20464;-54
2024/02/14 03:10:17;;;;;;;13.77;7.70;;;0.30;99.90;;;;;;5079709;28;20020;-52
2024/02/14 03:12:47;;;;;;;17.52;8.05;;;0.30;99.90;;;;;;5080184;28;20040;-52
2024/02/14 03:15:13;;;;;;;16.48;8.23;;;0.30;99.90;;;;;;5080291;28;20023;-54
2024/02/14 03:17:38;;;;;;;14.35;7.50;;;0.30;99.90;;;;;;5080375;28;20495;-54
2024/02/14 03:20:12;;;;;;;13.48;6.97;;;0.20;99.90;;;;;;5081953;28;20054;-53
2024/02/14 03:22:44;;;;;;;12.88;7.40;;;0.30;99.90;;;;;;5080221;28;20599;-54
2024/02/14 03:25:14;;;;;;;14.43;7.47;;;0.30;99.90;;;;;;5080147;28;20028;-54
2024/02/14 03:27:40;;;;;;;19.23;8.75;;;0.30;99.90;;;;;;5075773;28;20070;-52
2024/02/14 03:30:06;;;;;;;15.45;7.78;;;0.30;99.90;;;;;;5081345;28;20443;-54
2024/02/14 03:32:32;;;;;;;14.45;7.85;;;0.30;99.90;;;;;;5114561;27;20032;-52
2024/02/14 03:34:58;;;;;;;13.82;7.45;;;0.40;99.90;;;;;;5075493;28;20020;-54
2024/02/14 03:37:24;;;;;;;21.40;9.32;;;0.40;99.90;;;;;;5075918;28;20035;-54
2024/02/14 03:39:49;;;;;;;15.73;8.45;;;0.40;99.90;;;;;;5079496;28;20035;-53
2024/02/14 03:42:16;;;;;;;13.23;7.07;;;0.40;99.90;;;;;;5079554;28;20482;-48
2024/02/14 03:44:42;;;;;;;16.85;7.78;;;0.40;99.90;;;;;;5079466;28;20024;-53
2024/02/14 03:47:07;;;;;;;14.27;7.80;;;0.40;99.90;;;;;;5081659;28;20024;-54
2024/02/14 03:49:33;;;;;;;15.85;8.77;;;0.40;99.90;;;;;;5079338;28;20027;-55
2024/02/14 03:52:01;;;;;;;15.05;8.75;;;0.40;99.90;;;;;;5074014;28;20047;-54
2024/02/14 03:54:26;;;;;;;18.55;9.60;;;0.50;99.90;;;;;;5079295;28;20081;-53
2024/02/14 03:56:52;;;;;;;14.48;8.60;;;0.60;99.90;;;;;;5074433;28;20040;-54
2024/02/14 03:59:24;;;;;;;18.35;10.57;;;0.70;99.90;;;;;;5074981;28;20100;-53
2024/02/14 04:01:50;;;;;;;18.10;10.52;;;0.70;99.90;;;;;;5072846;28;20012;-51
2024/02/14 04:04:16;;;;;;;16.75;8.90;;;0.80;99.90;;;;;;5071716;28;20016;-54
2024/02/14 04:06:42;;;;;;;16.38;8.55;;;0.80;99.90;;;;;;5076987;28;20115;-54
2024/02/14 04:09:08;;;;;;;16.75;9.85;;;0.90;99.90;;;;;;5074908;28;20036;-54
2024/02/14 04:11:33;;;;;;;18.63;9.43;;;0.90;99.90;;;;;;5071145;28;20414;-51
2024/02/14 04:13:58;;;;;;;15.70;9.40;;;1.00;99.90;;;;;;5077268;28;20081;-55
2024/02/14 04:16:24;;;;;;;14.90;8.25;;;1.00;99.90;;;;;;5072704;28;20402;-54
2024/02/14 04:18:49;;;;;;;14.68;8.85;;;1.00;99.90;;;;;;5080513;28;20059;-51
2024/02/14 04:21:15;;;;;;;16.80;8.50;;;1.00;99.90;;;;;;5070325;28;20031;-51
2024/02/14 04:23:41;;;;;;;19.30;9.95;;;1.10;99.90;;;;;;5074923;28;20472;-55
2024/02/14 04:26:08;;;;;;;16.60;9.65;;;1.20;99.90;;;;;;5073208;28;20054;-56
2024/02/14 04:28:33;;;;;;;18.17;8.50;;;1.20;99.90;;;;;;5075060;28;20478;-54
2024/02/14 04:30:59;;;;;;;13.60;8.63;;;1.20;99.90;;;;;;5079111;28;20103;-54
2024/02/14 04:33:25;;;;;;;15.50;9.07;;;1.30;99.90;;;;;;5081110;28;20016;-56
2024/02/14 04:35:50;;;;;;;17.95;8.80;;;1.30;99.90;;;;;;5072751;28;20016;-55
2024/02/14 04:38:18;;;;;;;15.15;9.45;;;1.30;99.90;;;;;;5074641;28;20051;-53
2024/02/14 04:40:44;;;;;;;18.55;9.73;;;1.40;99.90;;;;;;5079120;28;20406;-56
2024/02/14 04:43:10;;;;;;;16.63;9.13;;;1.40;99.90;;;;;;5073527;28;20031;-56
2024/02/14 04:45:35;;;;;;;12.38;7.78;;;1.40;99.90;;;;;;5074796;28;20224;-54
2024/02/14 04:48:01;;;;;;;15.30;8.45;;;1.50;99.90;;;;;;5074689;28;20106;-54
2024/02/14 04:50:27;;;;;;;15.05;8.82;;;1.50;99.90;;;;;;5074624;28;20024;-52
2024/02/14 04:52:52;;;;;;;13.65;8.32;;;1.60;99.90;;;;;;5076282;28;20107;-56
2024/02/14 04:55:18;;;;;;;13.40;8.20;;;1.60;99.90;;;;;;5074991;28;20020;-55
2024/02/14 04:57:44;;;;;;;17.08;8.98;;;1.70;99.90;;;;;;5077023;28;20400;-56
2024/02/14 05:00:10;;;;;;;19.67;9.30;;;1.70;99.90;;;;;;5074248;28;20032;-55
2024/02/14 05:02:36;;;;;;;12.82;8.13;;;1.80;99.90;;;;;;5072694;28;20024;-56
2024/02/14 05:05:03;;;;;;;15.48;7.50;;;1.80;99.90;;;;;;5078724;28;20103;-57
2024/02/14 05:07:28;;;;;;;14.48;7.63;;;1.90;99.90;;;;;;5076077;28;20040;-56
2024/02/14 05:09:56;;;;;;;14.70;8.40;;;1.90;99.90;;;;;;5073066;28;20144;-55
2024/02/14 05:12:21;;;;;;;11.23;7.57;;;1.90;99.90;;;;;;5077130;28;20111;-55
2024/02/14 05:14:48;;;;;;;15.25;7.85;;;2.00;99.90;;;;;;5078327;28;20461;-56
2024/02/14 05:17:14;;;;;;;12.80;7.25;;;2.00;99.90;;;;;;5078435;28;20024;-56
2024/02/14 05:19:42;;;;;;;14.95;7.90;;;2.10;99.90;;;;;;5078249;28;20038;-56
2024/02/14 05:22:08;;;;;;;13.95;7.70;;;2.10;99.90;;;;;;5077889;28;20024;-56
2024/02/14 05:24:35;;;;;;;12.55;7.13;;;2.10;99.90;;;;;;5080352;28;20555;-57
2024/02/14 05:27:00;;;;;;;11.70;7.82;;;2.20;99.90;;;;;;5076163;28;20448;-56
2024/02/14 05:29:26;;;;;;;14.00;8.02;;;2.20;99.90;;;;;;5074348;28;20128;-57
2024/02/14 05:31:55;;;;;;;13.77;8.27;;;2.20;99.90;;;;;;5079210;28;20103;-55
2024/02/14 05:34:20;;;;;;;12.10;7.97;;;2.20;99.90;;;;;;5082455;28;20199;-57
2024/02/14 05:36:46;;;;;;;16.33;9.27;;;2.20;99.90;;;;;;5081901;28;20023;-57
2024/02/14 05:39:12;;;;;;;15.10;7.40;;;2.30;99.90;;;;;;5082282;28;20032;-56
2024/02/14 05:41:38;;;;;;;11.95;7.72;;;2.30;99.90;;;;;;5082814;28;20028;-56
2024/02/14 05:44:04;;;;;;;14.95;7.78;;;2.30;99.90;;;;;;5081962;28;20073;-57
2024/02/14 05:46:29;;;;;;;12.10;7.72;;;2.30;99.90;;;;;;5082359;28;20032;-57
2024/02/14 05:48:57;;;;;;;15.05;7.43;;;2.30;99.90;;;;;;5082063;28;20084;-53
2024/02/14 05:51:23;;;;;;;14.75;8.50;;;2.30;99.90;;;;;;5081645;28;20027;-57
2024/02/14 05:53:48;;;;;;;18.80;8.90;;;2.30;99.90;;;;;;5082001;28;20016;-57
2024/02/14 05:56:13;;;;;;;13.95;8.57;;;2.30;99.90;;;;;;5084050;28;20035;-57
2024/02/14 05:58:39;;;;;;;16.50;8.18;;;2.30;99.90;;;;;;5081776;28;20036;-56
2024/02/14 06:01:06;;;;;;;12.05;7.47;;;2.30;99.90;;;;;;5081700;28;20464;-57
2024/02/14 06:03:31;;;;;;;14.95;8.00;;;2.30;99.90;;;;;;5078940;28;20024;-57
2024/02/14 06:05:57;;;;;;;15.32;8.40;;;2.40;99.90;;;;;;5081570;28;20028;-56
2024/02/14 06:08:23;;;;;;;12.68;8.15;;;2.40;99.90;;;;;;5081445;28;20048;-56
2024/02/14 06:10:49;;;;;;;14.80;9.02;;;2.40;99.90;;;;;;5083550;28;20108;-54
2024/02/14 06:13:14;;;;;;;17.20;8.75;;;2.50;99.90;;;;;;5081367;28;20484;-56
2024/02/14 06:15:40;;;;;;;14.35;9.80;;;2.50;99.90;;;;;;5080391;28;20538;-54
2024/02/14 06:18:06;;;;;;;17.85;9.27;;;2.50;99.90;;;;;;5079564;28;20024;-54
2024/02/14 06:20:32;;;;;;;19.88;10.15;;;2.50;99.90;;;;;;5079913;28;20028;-56
2024/02/14 06:22:57;;;;;;;22.48;9.80;;;2.50;99.90;;;;;;5079785;28;20027;-55
2024/02/14 06:25:23;;;;;;;14.05;8.55;;;2.50;99.90;;;;;;5076972;28;20016;-56
2024/02/14 06:27:48;;;;;;;14.90;8.32;;;2.50;99.90;;;;;;5075410;28;20024;-57
2024/02/14 06:30:14;;;;;;;17.83;9.60;;;2.50;99.90;;;;;;5073603;28;20051;-57
2024/02/14 06:32:40;;;;;;;17.20;9.55;;;2.60;99.90;;;;;;5079637;28;20389;-56
2024/02/14 06:35:05;;;;;;;16.45;9.23;;;2.60;99.90;;;;;;5074435;28;20137;-54
2024/02/14 06:37:31;;;;;;;14.32;8.68;;;2.60;99.90;;;;;;5075820;28;20100;-57
2024/02/14 06:39:58;;;;;;;14.55;8.48;;;2.60;99.90;;;;;;5077685;28;20032;-56
2024/02/14 06:42:23;;;;;;;15.40;9.38;;;2.70;99.90;;;;;;5077903;28;20036;-55
2024/02/14 06:44:49;;;;;;;13.65;8.90;;;2.70;99.90;;;;;;5076900;28;20060;-55
2024/02/14 06:47:15;;;;;;;14.65;8.35;;;2.70;99.90;;;;;;5080404;28;20169;-56
2024/02/14 06:49:40;;;;;;;17.50;8.77;;;2.70;99.90;;;;;;5075013;28;20444;-55
2024/02/14 06:52:06;;;;;;;16.55;7.90;;;2.70;99.90;;;;;;5072972;28;20036;-54
2024/02/14 06:54:31;;;;;;;14.23;7.60;;;2.80;99.90;;;;;;5073136;28;20029;-51
2024/02/14 06:56:57;;;;;;;16.00;7.95;;;2.80;99.90;;;;;;5078931;28;20626;-53
2024/02/14 06:59:22;;;;;;;12.70;8.07;;;2.80;99.90;;;;;;5080145;28;20129;-56
2024/02/14 07:01:48;;;;;;;13.52;7.82;;;2.80;99.90;;;;;;5074885;28;20157;-54
2024/02/14 07:04:13;;;;;;;11.73;6.78;;;2.90;99.90;;;;;;5080446;28;20005;-55
2024/02/14 07:06:39;;;;;;;13.15;8.32;;;3.00;99.90;;;;;;5080391;28;20028;-56
2024/02/14 07:09:04;;;;;;;14.00;8.20;;;3.00;99.90;;;;;;5082058;28;20048;-54
2024/02/14 07:11:30;;;;;;;15.75;7.72;;;3.00;99.90;;;;;;5080501;28;20028;-57
2024/02/14 07:13:56;;;;;;;12.60;8.13;;;3.10;99.90;;;;;;5075245;28;20431;-55
2024/02/14 07:16:21;;;;;;;13.95;8.02;;;3.20;99.90;;;;;;5080136;28;20024;-57
2024/02/14 07:18:47;;;;;;;13.55;8.07;;;3.20;99.90;;;;;;5078917;28;20036;-56
2024/02/14 07:21:12;;;;;;;12.40;7.63;;;3.20;99.90;;;;;;5075684;28;20024;-53
2024/02/14 07:23:38;;;;;;;14.82;8.07;;;3.30;99.90;;;;;;5077727;28;20101;-56
2024/02/14 07:26:03;;;;;;;13.88;7.15;;;3.40;99.90;;;;;;5072701;28;20195;-57
2024/02/14 07:28:29;;;;;;;12.15;7.05;;;3.40;99.90;;;;;;5080076;28;20021;-55
2024/02/14 07:30:55;;;;;;;12.45;7.20;;;3.40;99.90;;;;;;5079814;28;20453;-56
2024/02/14 07:33:20;;;;;;;17.00;7.57;;;3.50;99.90;;;;;;5078438;28;20059;-57
2024/02/14 07:35:47;;;;;;;17.38;9.02;;;3.50;99.90;;;;;;5076175;28;20095;-56
2024/02/14 07:38:13;;;;;;;14.15;6.95;;;3.60;99.90;;;;;;5079675;28;20036;-55
2024/02/14 07:40:39;;;;;;;15.10;7.47;;;3.60;99.90;;;;;;5079868;28;20081;-55
2024/02/14 07:43:06;;;;;;;12.43;6.68;;;3.70;99.90;;;;;;5079390;28;20112;-51
2024/02/14 07:45:31;;;;;;;19.95;11.45;;;3.70;99.90;;;;;;5079841;28;20163;-60
2024/02/14 07:47:57;;;;;;;8.95;6.05;;;3.80;99.90;;;;;;5079490;28;20024;-60
2024/02/14 07:50:22;;;;;;;10.43;7.03;;;3.80;99.90;;;;;;5079510;28;20556;-59
2024/02/14 07:52:48;;;;;;;9.63;5.88;;;3.80;99.90;;;;;;5079431;28;20052;-59
2024/02/14 07:55:13;;;;;;;12.82;6.25;;;3.90;99.90;;;;;;5081280;28;20381;-60
2024/02/14 07:57:40;;;;;;;10.32;5.97;;;3.90;99.90;;;;;;5079483;28;20020;-59
2024/02/14 08:00:10;;;;;;;10.18;6.68;;;4.00;99.90;;;;;;5079238;28;20773;-60
2024/02/14 08:02:37;;;;;;;38.50;24.95;;;4.00;99.90;;;;;;5073199;28;20510;-59
2024/02/14 08:05:04;;;;;;;18.65;10.82;;;4.10;99.90;;;;;;5080067;28;20401;-60
2024/02/14 08:07:30;;;;;;;12.65;9.15;;;4.10;99.90;;;;;;5079124;28;20519;-60
2024/02/14 08:09:56;;;;;;;10.43;6.57;;;4.10;99.90;;;;;;5079061;28;20089;-59
2024/02/14 08:12:22;;;;;;;8.73;6.20;;;4.20;99.90;;;;;;5079292;28;20028;-60
2024/02/14 08:14:48;;;;;;;8.88;6.07;;;4.20;99.90;;;;;;5078960;28;20026;-59
2024/02/14 08:17:14;;;;;;;8.63;5.20;;;4.30;99.90;;;;;;5080837;28;20456;-60
2024/02/14 08:19:39;;;;;;;8.18;4.97;;;4.40;99.90;;;;;;5078937;28;20044;-60
2024/02/14 08:22:05;;;;;;;9.75;5.82;;;4.40;99.90;;;;;;5078665;28;20315;-59
2024/02/14 08:24:31;;;;;;;8.50;5.10;;;4.50;99.90;;;;;;5078955;28;20024;-60
2024/02/14 08:26:56;;;;;;;9.43;5.13;;;4.50;99.90;;;;;;5078891;28;20447;-60
2024/02/14 08:29:22;;;;;;;11.38;4.75;;;4.60;99.90;;;;;;5079046;28;20040;-59
2024/02/14 08:31:48;;;;;;;7.72;4.93;;;4.60;99.90;;;;;;5080867;28;20020;-60
2024/02/14 08:34:14;;;;;;;11.55;6.68;;;4.60;99.90;;;;;;5078615;28;20027;-60
2024/02/14 08:36:41;;;;;;;13.88;7.07;;;4.70;99.90;;;;;;5078464;28;20065;-60
2024/02/14 08:39:07;;;;;;;10.30;5.25;;;4.70;99.90;;;;;;5078505;28;20027;-59
2024/02/14 08:41:33;;;;;;;8.63;5.00;;;4.80;99.90;;;;;;5070347;28;20110;-60
2024/02/14 08:44:05;;;;;;;8.05;4.90;;;4.70;99.90;;;;;;5078292;28;20034;-59
2024/02/14 08:46:31;;;;;;;7.00;4.55;;;4.80;99.90;;;;;;5075894;28;20043;-59
2024/02/14 08:48:56;;;;;;;6.70;4.32;;;4.80;99.90;;;;;;5078597;28;20529;-59
2024/02/14 08:51:22;;;;;;;5.20;3.45;;;4.80;99.90;;;;;;5080468;28;20103;-60
2024/02/14 08:53:48;;;;;;;7.18;4.13;;;4.90;99.90;;;;;;5073443;28;20036;-60
2024/02/14 08:56:13;;;;;;;8.50;4.32;;;5.10;99.90;;;;;;5070134;28;20532;-60
2024/02/14 08:58:39;;;;;;;6.95;3.83;;;5.20;99.90;;;;;;5076920;28;20036;-60
2024/02/14 09:01:05;;;;;;;7.53;4.65;;;5.30;99.90;;;;;;5072293;28;20035;-60
2024/02/14 09:03:31;;;;;;;15.15;4.82;;;5.40;99.90;;;;;;5063796;28;20020;-59
2024/02/14 09:05:57;;;;;;;6.53;4.05;;;5.40;99.90;;;;;;5071525;28;20024;-59
2024/02/14 09:08:23;;;;;;;10.85;4.55;;;5.50;99.90;;;;;;5072275;28;20040;-58
2024/02/14 09:10:50;;;;;;;29.85;21.25;;;5.50;99.90;;;;;;5071656;28;20024;-58
2024/02/14 09:13:15;;;;;;;12.13;9.70;;;5.60;99.90;;;;;;5076717;28;20323;-59
2024/02/14 09:15:41;;;;;;;12.25;6.82;;;5.70;99.90;;;;;;5078142;28;20165;-58
2024/02/14 09:18:06;;;;;;;12.80;8.18;;;5.70;99.90;;;;;;5078250;28;20032;-58
2024/02/14 09:20:32;;;;;;;9.23;5.20;;;5.80;99.90;;;;;;5079962;28;20431;-59
2024/02/14 09:22:58;;;;;;;6.25;3.90;;;5.80;99.90;;;;;;5078198;28;20692;-59
2024/02/14 09:25:25;;;;;;;8.43;3.90;;;5.80;99.90;;;;;;5076172;28;20027;-59
2024/02/14 09:27:53;;;;;;;7.65;3.72;;;5.80;99.90;;;;;;5071897;28;20064;-59
2024/02/14 09:30:19;;;;;;;4.55;3.25;;;5.80;99.90;;;;;;5076414;28;20489;-59
2024/02/14 09:32:45;;;;;;;5.88;3.17;;;5.90;99.90;;;;;;5073370;28;20052;-59
2024/02/14 09:35:10;;;;;;;6.72;3.53;;;5.90;99.90;;;;;;5071713;28;20047;-59
2024/02/14 09:37:38;;;;;;;7.40;3.55;;;6.00;99.90;;;;;;5077255;28;20027;-58
2024/02/14 09:40:04;;;;;;;7.53;4.30;;;6.00;99.90;;;;;;5073812;28;20024;-59
2024/02/14 09:42:58;;;;;;;7.28;3.80;;;6.10;99.90;;;;;;5073610;28;20492;-59
2024/02/14 09:45:27;;;;;;;4.05;3.10;;;6.10;99.90;;;;;;5076182;28;20036;-59
2024/02/14 09:47:55;;;;;;;8.25;3.90;;;6.20;99.90;;;;;;5073802;28;20020;-59
2024/02/14 09:50:20;;;;;;;6.88;4.07;;;6.20;99.90;;;;;;5077798;28;20311;-59
2024/02/14 09:52:49;;;;;;;6.18;3.10;;;6.30;99.90;;;;;;5079108;28;20531;-60
2024/02/14 09:55:17;;;;;;;7.90;3.83;;;6.40;99.90;;;;;;5076267;28;20029;-59
2024/02/14 09:57:44;;;;;;;7.20;3.60;;;6.40;99.90;;;;;;5079591;28;20032;-60
2024/02/14 10:00:11;;;;;;;7.50;3.17;;;6.50;99.90;;;;;;5074522;28;20028;-60
2024/02/14 10:02:36;;;;;;;5.55;2.95;;;6.50;99.90;;;;;;5069034;28;20064;-58
2024/02/14 10:05:02;;;;;;;8.35;3.65;;;6.50;99.90;;;;;;5077955;28;20089;-59
2024/02/14 10:07:27;;;;;;;22.73;7.40;;;6.50;99.90;;;;;;5076515;28;20048;-59
2024/02/14 10:09:57;;;;;;;14.55;6.32;;;6.60;99.90;;;;;;5071659;28;20028;-58
2024/02/14 10:12:22;;;;;;;51.13;23.65;;;6.70;99.90;;;;;;5077530;28;20497;-58
2024/02/14 10:14:47;;;;;;;18.75;10.60;;;6.70;99.90;;;;;;5079644;28;20032;-59
2024/02/14 10:17:19;;;;;;;13.77;8.18;;;6.70;99.90;;;;;;5076424;28;20027;-59
2024/02/14 10:19:58;;;;;;;11.68;7.22;;;6.80;99.90;;;;;;5081154;28;20024;-59
2024/02/14 10:22:24;;;;;;;15.15;5.72;;;6.80;99.90;;;;;;5078253;28;20473;-59
2024/02/14 10:24:50;;;;;;;17.95;8.43;;;6.80;99.90;;;;;;5083096;28;20629;-59
2024/02/14 10:27:16;;;;;;;16.65;7.22;;;6.90;99.90;;;;;;5078748;28;20578;-59
2024/02/14 10:29:43;;;;;;;11.70;5.72;;;7.00;99.90;;;;;;5080925;28;20110;-59
2024/02/14 10:32:09;;;;;;;12.65;5.00;;;7.00;99.90;;;;;;5081139;28;20598;-59
2024/02/14 10:34:37;;;;;;;9.07;3.78;;;7.00;99.90;;;;;;5076691;28;20028;-59
2024/02/14 10:37:06;;;;;;;7.55;3.47;;;7.10;99.90;;;;;;5078534;28;20320;-59
2024/02/14 10:39:34;;;;;;;9.00;3.33;;;7.10;99.90;;;;;;5080828;28;20528;-59
2024/02/14 10:42:00;;;;;;;5.95;2.90;;;7.20;99.90;;;;;;5078286;28;20412;-59
2024/02/14 10:44:26;;;;;;;6.18;3.03;;;7.20;99.90;;;;;;5082329;28;20503;-59
2024/02/14 10:46:55;;;;;;;4.47;2.55;;;7.20;99.90;;;;;;5080774;28;20036;-59
2024/02/14 10:49:21;;;;;;;5.20;3.00;;;7.20;99.90;;;;;;5080996;28;20020;-60
2024/02/14 10:51:48;;;;;;;4.85;2.90;;;7.30;99.90;;;;;;5075048;28;20349;-59
2024/02/14 10:54:16;;;;;;;4.22;2.88;;;7.40;99.90;;;;;;5079220;28;20047;-59
2024/02/14 10:56:45;;;;;;;5.75;2.47;;;7.50;99.90;;;;;;5076531;28;20078;-59
2024/02/14 10:59:15;;;;;;;7.82;3.10;;;7.70;99.90;;;;;;5080240;28;20493;-60
2024/02/14 11:01:41;;;;;;;4.30;2.80;;;7.80;99.90;;;;;;5070415;28;20119;-59
2024/02/14 11:04:08;;;;;;;7.03;2.63;;;7.80;99.90;;;;;;5080336;28;20562;-59
2024/02/14 11:06:44;;;;;;;3.47;2.33;;;7.90;99.90;;;;;;5082156;28;20089;-59
2024/02/14 11:09:12;;;;;;;4.85;2.45;;;8.10;99.90;;;;;;5077059;28;20047;-59
2024/02/14 11:11:38;;;;;;;5.38;2.53;;;8.10;99.90;;;;;;5080469;28;20055;-59
2024/02/14 11:14:04;;;;;;;4.38;2.78;;;8.20;99.90;;;;;;5081946;28;20075;-59
2024/02/14 11:16:33;;;;;;;5.82;2.42;;;8.20;99.90;;;;;;5080456;28;20739;-59
2024/02/14 11:19:11;;;;;;;5.70;2.90;;;8.20;99.90;;;;;;5080031;28;20031;-59
2024/02/14 11:21:45;;;;;;;5.50;2.38;;;8.20;99.90;;;;;;5082128;28;20115;-59
2024/02/14 11:24:12;;;;;;;4.10;2.10;;;8.30;99.90;;;;;;5076832;28;20024;-60
2024/02/14 11:26:48;;;;;;;4.90;2.40;;;8.30;99.90;;;;;;5078131;28;20023;-58
2024/02/14 11:29:18;;;;;;;4.72;2.67;;;8.40;99.90;;;;;;5076829;28;20020;-60
2024/02/14 11:31:44;;;;;;;3.25;2.30;;;8.50;99.90;;;;;;5080322;28;20039;-59
2024/02/14 11:34:13;;;;;;;3.63;2.60;;;8.50;99.90;;;;;;5082179;28;20063;-60
2024/02/14 11:36:41;;;;;;;3.75;2.50;;;8.70;99.90;;;;;;5082009;28;20069;-60
2024/02/14 11:39:07;;;;;;;3.08;2.45;;;8.70;99.90;;;;;;5077798;28;20036;-60
2024/02/14 11:41:34;;;;;;;3.63;2.13;;;8.80;99.90;;;;;;5080046;28;20118;-61
2024/02/14 11:44:05;;;;;;;6.60;3.65;;;8.80;99.90;;;;;;5080207;28;20036;-61
2024/02/14 11:46:32;;;;;;;6.47;2.90;;;9.00;99.90;;;;;;5080487;28;20432;-60
2024/02/14 11:49:00;;;;;;;8.15;3.95;;;9.00;99.90;;;;;;5077975;28;20023;-61
2024/02/14 11:51:27;;;;;;;5.45;3.22;;;9.00;99.90;;;;;;5077970;28;20004;-60
2024/02/14 11:53:53;;;;;;;3.55;2.55;;;9.10;99.90;;;;;;5079779;28;20022;-60
2024/02/14 11:56:21;;;;;;;6.40;2.80;;;9.30;99.90;;;;;;5079901;28;20024;-60
2024/02/14 11:58:49;;;;;;;3.45;2.35;;;9.40;99.90;;;;;;5081336;28;20020;-60
2024/02/14 12:01:17;;;;;;;4.43;2.92;;;9.50;99.90;;;;;;5079221;28;20088;-61
2024/02/14 12:03:44;;;;;;;4.85;2.60;;;9.50;99.90;;;;;;5072335;28;20024;-60
2024/02/14 12:06:10;;;;;;;7.07;2.90;;;9.40;99.90;;;;;;5079800;28;20016;-60
2024/02/14 12:08:36;;;;;;;6.18;2.58;;;9.30;99.90;;;;;;5079287;28;20052;-60
2024/02/14 12:11:02;;;;;;;3.03;2.38;;;9.20;99.90;;;;;;5079484;28;20493;-61
2024/02/14 12:13:32;;;;;;;4.80;2.00;;;9.10;99.90;;;;;;5079512;28;20063;-60
2024/02/14 12:15:57;;;;;;;2.45;2.00;;;9.00;99.90;;;;;;5075180;28;20027;-61
2024/02/14 12:18:23;;;;;;;3.47;2.22;;;8.90;99.90;;;;;;5081099;28;20028;-61
2024/02/14 12:20:50;;;;;;;4.05;2.38;;;8.80;99.90;;;;;;5079262;28;20016;-61
2024/02/14 12:23:19;;;;;;;5.30;2.47;;;8.70;99.90;;;;;;5077916;28;20023;-61
2024/02/14 12:25:46;;;;;;;4.53;2.40;;;8.60;99.90;;;;;;5079229;28;20028;-60
2024/02/14 12:28:18;;;;;;;5.43;2.30;;;8.60;99.90;;;;;;5075164;28;20023;-60
2024/02/14 12:30:49;;;;;;;6.03;2.30;;;8.60;99.90;;;;;;5080721;28;20036;-60
2024/02/14 12:33:16;;;;;;;5.60;2.75;;;8.60;99.90;;;;;;5078716;28;20020;-61
2024/02/14 12:35:46;;;;;;;4.40;2.40;;;8.60;99.90;;;;;;5077126;28;20552;-61
2024/02/14 12:38:12;;;;;;;5.35;2.40;;;8.60;99.90;;;;;;5078974;28;20020;-61
2024/02/14 12:40:41;;;;;;;3.70;2.35;;;8.60;99.90;;;;;;5075666;28;20077;-60
2024/02/14 12:43:07;;;;;;;5.80;2.30;;;8.50;99.90;;;;;;5075065;28;20481;-60
2024/02/14 12:45:36;;;;;;;4.95;2.30;;;8.60;99.90;;;;;;5078782;28;20021;-59